sensor_id;sensor_type;location;lat;lon;timestamp;P1;durP1;ratioP1;P2;durP2;ratioP2
10588;SDS011;5342;55.676;13.346;2022-11-09T00:00:47;4.07;;;2.33;;
10588;SDS011;5342;55.676;13.346;2022-11-09T00:03:14;4.27;;;2.33;;
10588;SDS011;5342;55.676;13.346;2022-11-09T00:05:40;3.87;;;1.83;;
10588;SDS011;5342;55.676;13.346;2022-11-09T00:08:08;5.97;;;1.90;;
10588;SDS011;5342;55.676;13.346;2022-11-09T00:10:34;4.83;;;2.10;;
10588;SDS011;5342;55.676;13.346;2022-11-09T00:13:01;5.33;;;1.97;;
10588;SDS011;5342;55.676;13.346;2022-11-09T00:15:28;2.90;;;2.07;;
10588;SDS011;5342;55.676;13.346;2022-11-09T00:17:54;6.30;;;2.50;;
10588;SDS011;5342;55.676;13.346;2022-11-09T00:20:21;4.27;;;2.10;;
10588;SDS011;5342;55.676;13.346;2022-11-09T00:22:48;7.13;;;2.20;;
10588;SDS011;5342;55.676;13.346;2022-11-09T00:25:15;3.60;;;1.73;;
10588;SDS011;5342;55.676;13.346;2022-11-09T00:27:41;4.70;;;2.10;;
10588;SDS011;5342;55.676;13.346;2022-11-09T00:30:08;8.37;;;2.20;;
10588;SDS011;5342;55.676;13.346;2022-11-09T00:32:37;3.50;;;1.80;;
10588;SDS011;5342;55.676;13.346;2022-11-09T00:35:04;5.13;;;2.27;;
10588;SDS011;5342;55.676;13.346;2022-11-09T00:37:31;3.57;;;2.23;;
10588;SDS011;5342;55.676;13.346;2022-11-09T00:39:57;3.57;;;2.00;;
10588;SDS011;5342;55.676;13.346;2022-11-09T00:42:24;4.37;;;2.00;;
10588;SDS011;5342;55.676;13.346;2022-11-09T00:44:50;4.17;;;2.00;;
10588;SDS011;5342;55.676;13.346;2022-11-09T00:47:17;6.20;;;2.00;;
10588;SDS011;5342;55.676;13.346;2022-11-09T00:49:43;4.10;;;2.33;;
10588;SDS011;5342;55.676;13.346;2022-11-09T00:52:10;3.33;;;2.03;;
10588;SDS011;5342;55.676;13.346;2022-11-09T00:54:36;5.07;;;2.10;;
10588;SDS011;5342;55.676;13.346;2022-11-09T00:57:03;4.27;;;2.17;;
10588;SDS011;5342;55.676;13.346;2022-11-09T00:59:29;4.33;;;2.10;;
10588;SDS011;5342;55.676;13.346;2022-11-09T01:01:56;4.33;;;2.20;;
10588;SDS011;5342;55.676;13.346;2022-11-09T01:04:23;5.27;;;2.10;;
10588;SDS011;5342;55.676;13.346;2022-11-09T01:06:49;5.23;;;2.40;;
10588;SDS011;5342;55.676;13.346;2022-11-09T01:09:16;5.30;;;2.20;;
10588;SDS011;5342;55.676;13.346;2022-11-09T01:11:42;5.10;;;2.17;;
10588;SDS011;5342;55.676;13.346;2022-11-09T01:14:09;3.00;;;1.97;;
10588;SDS011;5342;55.676;13.346;2022-11-09T01:16:35;2.57;;;1.90;;
10588;SDS011;5342;55.676;13.346;2022-11-09T01:19:02;2.70;;;1.87;;
10588;SDS011;5342;55.676;13.346;2022-11-09T01:21:28;2.77;;;1.97;;
10588;SDS011;5342;55.676;13.346;2022-11-09T01:23:55;2.70;;;2.10;;
10588;SDS011;5342;55.676;13.346;2022-11-09T01:26:23;3.87;;;2.00;;
10588;SDS011;5342;55.676;13.346;2022-11-09T01:28:49;4.57;;;2.00;;
10588;SDS011;5342;55.676;13.346;2022-11-09T01:31:17;3.03;;;1.83;;
10588;SDS011;5342;55.676;13.346;2022-11-09T01:33:44;2.43;;;1.80;;
10588;SDS011;5342;55.676;13.346;2022-11-09T01:36:11;2.73;;;1.63;;
10588;SDS011;5342;55.676;13.346;2022-11-09T01:38:38;5.87;;;2.27;;
10588;SDS011;5342;55.676;13.346;2022-11-09T01:41:05;5.23;;;2.03;;
10588;SDS011;5342;55.676;13.346;2022-11-09T01:43:32;2.33;;;1.77;;
10588;SDS011;5342;55.676;13.346;2022-11-09T01:46:03;3.90;;;2.10;;
10588;SDS011;5342;55.676;13.346;2022-11-09T01:48:41;4.23;;;2.20;;
10588;SDS011;5342;55.676;13.346;2022-11-09T01:51:22;2.63;;;1.97;;
10588;SDS011;5342;55.676;13.346;2022-11-09T01:53:50;3.50;;;1.90;;
10588;SDS011;5342;55.676;13.346;2022-11-09T01:56:17;8.63;;;2.40;;
10588;SDS011;5342;55.676;13.346;2022-11-09T01:58:47;4.00;;;2.27;;
10588;SDS011;5342;55.676;13.346;2022-11-09T02:01:14;4.07;;;2.40;;
10588;SDS011;5342;55.676;13.346;2022-11-09T02:03:42;4.23;;;2.00;;
10588;SDS011;5342;55.676;13.346;2022-11-09T02:06:11;4.13;;;2.20;;
10588;SDS011;5342;55.676;13.346;2022-11-09T02:08:38;4.30;;;1.90;;
10588;SDS011;5342;55.676;13.346;2022-11-09T02:11:09;5.93;;;2.17;;
10588;SDS011;5342;55.676;13.346;2022-11-09T02:13:37;4.30;;;2.27;;
10588;SDS011;5342;55.676;13.346;2022-11-09T02:16:04;3.03;;;2.20;;
10588;SDS011;5342;55.676;13.346;2022-11-09T02:18:31;7.13;;;2.23;;
10588;SDS011;5342;55.676;13.346;2022-11-09T02:20:58;4.50;;;1.63;;
10588;SDS011;5342;55.676;13.346;2022-11-09T02:23:25;6.90;;;2.20;;
10588;SDS011;5342;55.676;13.346;2022-11-09T02:25:52;2.63;;;1.97;;
10588;SDS011;5342;55.676;13.346;2022-11-09T02:28:20;2.93;;;2.23;;
10588;SDS011;5342;55.676;13.346;2022-11-09T02:30:48;4.80;;;2.13;;
10588;SDS011;5342;55.676;13.346;2022-11-09T02:33:15;4.53;;;2.07;;
10588;SDS011;5342;55.676;13.346;2022-11-09T02:35:42;3.50;;;2.27;;
10588;SDS011;5342;55.676;13.346;2022-11-09T02:38:09;5.50;;;2.00;;
10588;SDS011;5342;55.676;13.346;2022-11-09T02:40:36;4.53;;;2.43;;
10588;SDS011;5342;55.676;13.346;2022-11-09T02:43:05;3.30;;;2.30;;
10588;SDS011;5342;55.676;13.346;2022-11-09T02:45:32;4.87;;;2.40;;
10588;SDS011;5342;55.676;13.346;2022-11-09T02:47:59;2.77;;;1.87;;
10588;SDS011;5342;55.676;13.346;2022-11-09T02:50:25;3.80;;;2.13;;
10588;SDS011;5342;55.676;13.346;2022-11-09T02:52:52;6.93;;;2.67;;
10588;SDS011;5342;55.676;13.346;2022-11-09T02:55:18;2.17;;;1.93;;
10588;SDS011;5342;55.676;13.346;2022-11-09T02:57:45;4.40;;;2.10;;
10588;SDS011;5342;55.676;13.346;2022-11-09T03:00:11;3.93;;;1.87;;
10588;SDS011;5342;55.676;13.346;2022-11-09T03:02:38;6.07;;;2.47;;
10588;SDS011;5342;55.676;13.346;2022-11-09T03:05:05;4.90;;;2.57;;
10588;SDS011;5342;55.676;13.346;2022-11-09T03:07:32;7.50;;;2.43;;
10588;SDS011;5342;55.676;13.346;2022-11-09T03:09:58;3.60;;;2.30;;
10588;SDS011;5342;55.676;13.346;2022-11-09T03:12:25;3.63;;;2.07;;
10588;SDS011;5342;55.676;13.346;2022-11-09T03:15:04;2.90;;;1.90;;
10588;SDS011;5342;55.676;13.346;2022-11-09T03:17:31;5.40;;;2.13;;
10588;SDS011;5342;55.676;13.346;2022-11-09T03:19:58;5.17;;;2.33;;
10588;SDS011;5342;55.676;13.346;2022-11-09T03:22:24;6.40;;;2.17;;
10588;SDS011;5342;55.676;13.346;2022-11-09T03:24:51;4.63;;;2.30;;
10588;SDS011;5342;55.676;13.346;2022-11-09T03:27:17;3.90;;;2.53;;
10588;SDS011;5342;55.676;13.346;2022-11-09T03:29:44;2.83;;;2.00;;
10588;SDS011;5342;55.676;13.346;2022-11-09T03:32:10;7.33;;;2.43;;
10588;SDS011;5342;55.676;13.346;2022-11-09T03:34:37;4.43;;;2.63;;
10588;SDS011;5342;55.676;13.346;2022-11-09T03:37:03;4.50;;;2.43;;
10588;SDS011;5342;55.676;13.346;2022-11-09T03:39:30;4.20;;;2.30;;
10588;SDS011;5342;55.676;13.346;2022-11-09T03:41:57;3.27;;;2.07;;
10588;SDS011;5342;55.676;13.346;2022-11-09T03:44:24;4.67;;;2.60;;
10588;SDS011;5342;55.676;13.346;2022-11-09T03:46:51;5.97;;;2.50;;
10588;SDS011;5342;55.676;13.346;2022-11-09T03:49:17;6.00;;;1.90;;
10588;SDS011;5342;55.676;13.346;2022-11-09T03:51:44;4.63;;;2.10;;
10588;SDS011;5342;55.676;13.346;2022-11-09T03:54:10;3.27;;;2.30;;
10588;SDS011;5342;55.676;13.346;2022-11-09T03:56:37;5.17;;;2.00;;
10588;SDS011;5342;55.676;13.346;2022-11-09T03:59:03;3.10;;;1.90;;
10588;SDS011;5342;55.676;13.346;2022-11-09T04:01:30;6.30;;;2.47;;
10588;SDS011;5342;55.676;13.346;2022-11-09T04:03:56;3.77;;;2.30;;
10588;SDS011;5342;55.676;13.346;2022-11-09T04:06:23;4.33;;;2.07;;
10588;SDS011;5342;55.676;13.346;2022-11-09T04:08:50;5.17;;;1.97;;
10588;SDS011;5342;55.676;13.346;2022-11-09T04:11:17;2.60;;;2.07;;
10588;SDS011;5342;55.676;13.346;2022-11-09T04:13:43;7.20;;;2.40;;
10588;SDS011;5342;55.676;13.346;2022-11-09T04:16:10;4.70;;;2.13;;
10588;SDS011;5342;55.676;13.346;2022-11-09T04:18:37;3.50;;;2.13;;
10588;SDS011;5342;55.676;13.346;2022-11-09T04:21:03;3.87;;;2.30;;
10588;SDS011;5342;55.676;13.346;2022-11-09T04:23:30;6.00;;;2.10;;
10588;SDS011;5342;55.676;13.346;2022-11-09T04:25:56;4.23;;;2.30;;
10588;SDS011;5342;55.676;13.346;2022-11-09T04:28:24;3.27;;;2.13;;
10588;SDS011;5342;55.676;13.346;2022-11-09T04:30:51;2.60;;;2.03;;
10588;SDS011;5342;55.676;13.346;2022-11-09T04:33:17;6.17;;;2.00;;
10588;SDS011;5342;55.676;13.346;2022-11-09T04:35:44;3.33;;;2.23;;
10588;SDS011;5342;55.676;13.346;2022-11-09T04:38:12;6.20;;;2.57;;
10588;SDS011;5342;55.676;13.346;2022-11-09T04:40:38;4.33;;;2.10;;
10588;SDS011;5342;55.676;13.346;2022-11-09T04:43:06;3.73;;;2.10;;
10588;SDS011;5342;55.676;13.346;2022-11-09T04:45:33;4.33;;;1.90;;
10588;SDS011;5342;55.676;13.346;2022-11-09T04:48:00;3.53;;;2.77;;
10588;SDS011;5342;55.676;13.346;2022-11-09T04:50:28;3.90;;;2.20;;
10588;SDS011;5342;55.676;13.346;2022-11-09T04:52:55;4.13;;;2.20;;
10588;SDS011;5342;55.676;13.346;2022-11-09T04:55:28;7.47;;;2.50;;
10588;SDS011;5342;55.676;13.346;2022-11-09T04:57:55;3.63;;;2.40;;
10588;SDS011;5342;55.676;13.346;2022-11-09T05:00:21;3.50;;;2.20;;
10588;SDS011;5342;55.676;13.346;2022-11-09T05:02:48;4.00;;;2.57;;
10588;SDS011;5342;55.676;13.346;2022-11-09T05:05:15;4.80;;;2.30;;
10588;SDS011;5342;55.676;13.346;2022-11-09T05:07:41;3.57;;;2.20;;
10588;SDS011;5342;55.676;13.346;2022-11-09T05:10:08;5.50;;;2.03;;
10588;SDS011;5342;55.676;13.346;2022-11-09T05:12:34;4.93;;;2.63;;
10588;SDS011;5342;55.676;13.346;2022-11-09T05:15:01;5.60;;;2.70;;
10588;SDS011;5342;55.676;13.346;2022-11-09T05:17:27;4.70;;;2.27;;
10588;SDS011;5342;55.676;13.346;2022-11-09T05:19:54;3.23;;;2.00;;
10588;SDS011;5342;55.676;13.346;2022-11-09T05:22:20;4.33;;;2.00;;
10588;SDS011;5342;55.676;13.346;2022-11-09T05:25:05;3.90;;;2.50;;
10588;SDS011;5342;55.676;13.346;2022-11-09T05:27:32;5.00;;;2.17;;
10588;SDS011;5342;55.676;13.346;2022-11-09T05:29:58;4.57;;;2.57;;
10588;SDS011;5342;55.676;13.346;2022-11-09T05:32:25;3.87;;;2.20;;
10588;SDS011;5342;55.676;13.346;2022-11-09T05:34:51;3.60;;;2.30;;
10588;SDS011;5342;55.676;13.346;2022-11-09T05:37:18;4.03;;;2.03;;
10588;SDS011;5342;55.676;13.346;2022-11-09T05:39:46;4.20;;;2.53;;
10588;SDS011;5342;55.676;13.346;2022-11-09T05:42:13;6.30;;;2.50;;
10588;SDS011;5342;55.676;13.346;2022-11-09T05:44:40;5.13;;;2.37;;
10588;SDS011;5342;55.676;13.346;2022-11-09T05:47:06;5.73;;;2.30;;
10588;SDS011;5342;55.676;13.346;2022-11-09T05:49:33;4.87;;;2.40;;
10588;SDS011;5342;55.676;13.346;2022-11-09T05:51:59;3.97;;;2.23;;
10588;SDS011;5342;55.676;13.346;2022-11-09T05:54:26;4.67;;;2.57;;
10588;SDS011;5342;55.676;13.346;2022-11-09T05:56:52;5.50;;;2.53;;
10588;SDS011;5342;55.676;13.346;2022-11-09T05:59:19;7.20;;;2.47;;
10588;SDS011;5342;55.676;13.346;2022-11-09T06:01:45;5.60;;;2.30;;
10588;SDS011;5342;55.676;13.346;2022-11-09T06:04:12;4.47;;;2.40;;
10588;SDS011;5342;55.676;13.346;2022-11-09T06:06:38;4.13;;;2.40;;
10588;SDS011;5342;55.676;13.346;2022-11-09T06:09:05;4.27;;;2.10;;
10588;SDS011;5342;55.676;13.346;2022-11-09T06:11:31;4.10;;;2.70;;
10588;SDS011;5342;55.676;13.346;2022-11-09T06:13:58;4.17;;;2.13;;
10588;SDS011;5342;55.676;13.346;2022-11-09T06:16:25;5.67;;;2.80;;
10588;SDS011;5342;55.676;13.346;2022-11-09T06:18:51;3.73;;;2.90;;
10588;SDS011;5342;55.676;13.346;2022-11-09T06:21:18;3.10;;;2.17;;
10588;SDS011;5342;55.676;13.346;2022-11-09T06:23:44;5.13;;;2.50;;
10588;SDS011;5342;55.676;13.346;2022-11-09T06:26:11;5.03;;;2.40;;
10588;SDS011;5342;55.676;13.346;2022-11-09T06:28:38;5.37;;;2.10;;
10588;SDS011;5342;55.676;13.346;2022-11-09T06:31:05;4.82;;;2.70;;
10588;SDS011;5342;55.676;13.346;2022-11-09T06:33:33;3.27;;;2.30;;
10588;SDS011;5342;55.676;13.346;2022-11-09T06:36:00;4.87;;;2.30;;
10588;SDS011;5342;55.676;13.346;2022-11-09T06:38:27;2.87;;;2.17;;
10588;SDS011;5342;55.676;13.346;2022-11-09T06:40:54;3.87;;;2.40;;
10588;SDS011;5342;55.676;13.346;2022-11-09T06:43:21;3.47;;;2.17;;
10588;SDS011;5342;55.676;13.346;2022-11-09T06:45:48;4.57;;;2.07;;
10588;SDS011;5342;55.676;13.346;2022-11-09T06:48:15;3.03;;;2.10;;
10588;SDS011;5342;55.676;13.346;2022-11-09T06:50:41;4.03;;;2.10;;
10588;SDS011;5342;55.676;13.346;2022-11-09T06:53:09;3.83;;;1.90;;
10588;SDS011;5342;55.676;13.346;2022-11-09T06:55:36;3.43;;;2.20;;
10588;SDS011;5342;55.676;13.346;2022-11-09T06:58:09;2.80;;;1.80;;
10588;SDS011;5342;55.676;13.346;2022-11-09T07:00:36;2.60;;;2.40;;
10588;SDS011;5342;55.676;13.346;2022-11-09T07:03:03;3.87;;;2.07;;
10588;SDS011;5342;55.676;13.346;2022-11-09T07:05:30;4.30;;;2.37;;
10588;SDS011;5342;55.676;13.346;2022-11-09T07:07:56;5.93;;;2.17;;
10588;SDS011;5342;55.676;13.346;2022-11-09T07:10:23;3.77;;;2.43;;
10588;SDS011;5342;55.676;13.346;2022-11-09T07:12:50;3.43;;;2.40;;
10588;SDS011;5342;55.676;13.346;2022-11-09T07:15:17;8.23;;;2.70;;
10588;SDS011;5342;55.676;13.346;2022-11-09T07:17:43;2.70;;;2.00;;
10588;SDS011;5342;55.676;13.346;2022-11-09T07:20:10;3.83;;;2.53;;
10588;SDS011;5342;55.676;13.346;2022-11-09T07:22:39;3.03;;;2.10;;
10588;SDS011;5342;55.676;13.346;2022-11-09T07:25:07;3.33;;;2.30;;
10588;SDS011;5342;55.676;13.346;2022-11-09T07:27:34;5.57;;;2.30;;
10588;SDS011;5342;55.676;13.346;2022-11-09T07:30:00;3.50;;;2.47;;
10588;SDS011;5342;55.676;13.346;2022-11-09T07:32:31;5.13;;;2.50;;
10588;SDS011;5342;55.676;13.346;2022-11-09T07:34:57;3.20;;;2.33;;
10588;SDS011;5342;55.676;13.346;2022-11-09T07:37:24;4.43;;;2.50;;
10588;SDS011;5342;55.676;13.346;2022-11-09T07:39:50;5.90;;;2.27;;
10588;SDS011;5342;55.676;13.346;2022-11-09T07:42:17;3.13;;;2.20;;
10588;SDS011;5342;55.676;13.346;2022-11-09T07:44:43;3.73;;;2.37;;
10588;SDS011;5342;55.676;13.346;2022-11-09T07:47:10;4.87;;;2.70;;
10588;SDS011;5342;55.676;13.346;2022-11-09T07:49:37;3.97;;;2.27;;
10588;SDS011;5342;55.676;13.346;2022-11-09T07:52:04;3.60;;;2.80;;
10588;SDS011;5342;55.676;13.346;2022-11-09T07:54:30;6.50;;;2.53;;
10588;SDS011;5342;55.676;13.346;2022-11-09T07:56:57;4.47;;;2.40;;
10588;SDS011;5342;55.676;13.346;2022-11-09T07:59:23;4.73;;;2.60;;
10588;SDS011;5342;55.676;13.346;2022-11-09T08:01:50;4.33;;;2.70;;
10588;SDS011;5342;55.676;13.346;2022-11-09T08:04:17;4.97;;;2.30;;
10588;SDS011;5342;55.676;13.346;2022-11-09T08:06:43;6.73;;;2.67;;
10588;SDS011;5342;55.676;13.346;2022-11-09T08:09:10;3.77;;;2.30;;
10588;SDS011;5342;55.676;13.346;2022-11-09T08:11:36;3.70;;;2.00;;
10588;SDS011;5342;55.676;13.346;2022-11-09T08:14:03;6.33;;;2.50;;
10588;SDS011;5342;55.676;13.346;2022-11-09T08:16:29;4.83;;;2.50;;
10588;SDS011;5342;55.676;13.346;2022-11-09T08:18:56;6.37;;;2.47;;
10588;SDS011;5342;55.676;13.346;2022-11-09T08:21:22;8.57;;;2.40;;
10588;SDS011;5342;55.676;13.346;2022-11-09T08:23:49;5.13;;;2.60;;
10588;SDS011;5342;55.676;13.346;2022-11-09T08:26:15;6.10;;;2.70;;
10588;SDS011;5342;55.676;13.346;2022-11-09T08:28:42;4.70;;;2.20;;
10588;SDS011;5342;55.676;13.346;2022-11-09T08:31:08;4.00;;;2.60;;
10588;SDS011;5342;55.676;13.346;2022-11-09T08:33:36;4.07;;;2.63;;
10588;SDS011;5342;55.676;13.346;2022-11-09T08:38:36;6.37;;;2.50;;
10588;SDS011;5342;55.676;13.346;2022-11-09T08:41:02;4.13;;;2.67;;
10588;SDS011;5342;55.676;13.346;2022-11-09T08:43:29;3.67;;;2.40;;
10588;SDS011;5342;55.676;13.346;2022-11-09T08:45:55;5.07;;;2.43;;
10588;SDS011;5342;55.676;13.346;2022-11-09T08:48:22;3.90;;;2.60;;
10588;SDS011;5342;55.676;13.346;2022-11-09T08:50:55;3.13;;;2.27;;
10588;SDS011;5342;55.676;13.346;2022-11-09T08:53:23;5.33;;;2.50;;
10588;SDS011;5342;55.676;13.346;2022-11-09T08:55:50;5.37;;;2.50;;
10588;SDS011;5342;55.676;13.346;2022-11-09T08:58:17;3.10;;;2.37;;
10588;SDS011;5342;55.676;13.346;2022-11-09T09:00:44;4.37;;;2.63;;
10588;SDS011;5342;55.676;13.346;2022-11-09T09:03:10;5.93;;;2.93;;
10588;SDS011;5342;55.676;13.346;2022-11-09T09:05:37;4.17;;;2.37;;
10588;SDS011;5342;55.676;13.346;2022-11-09T09:08:04;7.00;;;2.67;;
10588;SDS011;5342;55.676;13.346;2022-11-09T09:10:31;4.33;;;2.40;;
10588;SDS011;5342;55.676;13.346;2022-11-09T09:13:00;3.97;;;1.90;;
10588;SDS011;5342;55.676;13.346;2022-11-09T09:15:27;5.70;;;2.70;;
10588;SDS011;5342;55.676;13.346;2022-11-09T09:17:53;4.97;;;2.07;;
10588;SDS011;5342;55.676;13.346;2022-11-09T09:20:20;2.37;;;1.90;;
10588;SDS011;5342;55.676;13.346;2022-11-09T09:22:47;3.33;;;2.07;;
10588;SDS011;5342;55.676;13.346;2022-11-09T09:25:14;4.87;;;2.50;;
10588;SDS011;5342;55.676;13.346;2022-11-09T09:27:42;6.20;;;2.60;;
10588;SDS011;5342;55.676;13.346;2022-11-09T09:30:08;2.87;;;2.27;;
10588;SDS011;5342;55.676;13.346;2022-11-09T09:32:35;4.00;;;2.63;;
10588;SDS011;5342;55.676;13.346;2022-11-09T09:35:02;5.20;;;2.50;;
10588;SDS011;5342;55.676;13.346;2022-11-09T09:37:28;5.40;;;2.43;;
10588;SDS011;5342;55.676;13.346;2022-11-09T09:39:55;5.43;;;2.50;;
10588;SDS011;5342;55.676;13.346;2022-11-09T09:42:24;4.77;;;2.20;;
10588;SDS011;5342;55.676;13.346;2022-11-09T09:44:53;7.57;;;2.33;;
10588;SDS011;5342;55.676;13.346;2022-11-09T09:50:21;8.33;;;2.37;;
10588;SDS011;5342;55.676;13.346;2022-11-09T09:52:52;6.87;;;2.43;;
10588;SDS011;5342;55.676;13.346;2022-11-09T09:57:49;4.60;;;2.30;;
10588;SDS011;5342;55.676;13.346;2022-11-09T10:00:23;5.43;;;2.90;;
10588;SDS011;5342;55.676;13.346;2022-11-09T10:02:50;6.70;;;2.60;;
10588;SDS011;5342;55.676;13.346;2022-11-09T10:05:17;4.63;;;2.20;;
10588;SDS011;5342;55.676;13.346;2022-11-09T10:07:53;3.13;;;2.00;;
10588;SDS011;5342;55.676;13.346;2022-11-09T10:23:05;4.60;;;2.37;;
10588;SDS011;5342;55.676;13.346;2022-11-09T10:25:36;6.60;;;2.77;;
10588;SDS011;5342;55.676;13.346;2022-11-09T10:28:08;8.97;;;2.90;;
10588;SDS011;5342;55.676;13.346;2022-11-09T10:30:35;5.17;;;2.47;;
10588;SDS011;5342;55.676;13.346;2022-11-09T10:38:12;8.50;;;2.77;;
10588;SDS011;5342;55.676;13.346;2022-11-09T10:40:41;4.30;;;2.83;;
10588;SDS011;5342;55.676;13.346;2022-11-09T10:43:12;5.57;;;2.60;;
10588;SDS011;5342;55.676;13.346;2022-11-09T10:45:42;4.83;;;2.43;;
10588;SDS011;5342;55.676;13.346;2022-11-09T10:48:10;5.57;;;2.30;;
10588;SDS011;5342;55.676;13.346;2022-11-09T10:55:33;4.13;;;2.40;;
10588;SDS011;5342;55.676;13.346;2022-11-09T10:58:24;6.97;;;2.53;;
10588;SDS011;5342;55.676;13.346;2022-11-09T11:03:27;5.43;;;2.57;;
10588;SDS011;5342;55.676;13.346;2022-11-09T11:06:01;7.30;;;2.87;;
10588;SDS011;5342;55.676;13.346;2022-11-09T11:08:33;3.97;;;2.53;;
10588;SDS011;5342;55.676;13.346;2022-11-09T11:11:07;4.63;;;2.60;;
10588;SDS011;5342;55.676;13.346;2022-11-09T11:13:34;6.47;;;2.67;;
10588;SDS011;5342;55.676;13.346;2022-11-09T11:16:00;4.43;;;2.40;;
10588;SDS011;5342;55.676;13.346;2022-11-09T11:18:27;3.97;;;2.57;;
10588;SDS011;5342;55.676;13.346;2022-11-09T11:21:12;6.13;;;2.60;;
10588;SDS011;5342;55.676;13.346;2022-11-09T11:23:39;3.90;;;2.43;;
10588;SDS011;5342;55.676;13.346;2022-11-09T11:28:39;4.13;;;2.17;;
10588;SDS011;5342;55.676;13.346;2022-11-09T11:31:11;6.17;;;2.70;;
10588;SDS011;5342;55.676;13.346;2022-11-09T11:33:39;7.77;;;2.40;;
10588;SDS011;5342;55.676;13.346;2022-11-09T11:36:17;7.03;;;2.53;;
10588;SDS011;5342;55.676;13.346;2022-11-09T11:44:22;3.20;;;2.10;;
10588;SDS011;5342;55.676;13.346;2022-11-09T11:57:33;6.90;;;2.10;;
10588;SDS011;5342;55.676;13.346;2022-11-09T12:00:02;4.90;;;2.20;;
10588;SDS011;5342;55.676;13.346;2022-11-09T12:17:56;6.00;;;2.27;;
10588;SDS011;5342;55.676;13.346;2022-11-09T12:31:24;4.47;;;2.30;;
10588;SDS011;5342;55.676;13.346;2022-11-09T12:38:59;7.57;;;2.40;;
10588;SDS011;5342;55.676;13.346;2022-11-09T12:41:28;5.20;;;2.50;;
10588;SDS011;5342;55.676;13.346;2022-11-09T12:43:57;6.07;;;2.63;;
10588;SDS011;5342;55.676;13.346;2022-11-09T12:46:29;9.97;;;2.83;;
10588;SDS011;5342;55.676;13.346;2022-11-09T12:48:56;7.50;;;2.70;;
10588;SDS011;5342;55.676;13.346;2022-11-09T12:51:24;7.23;;;2.70;;
10588;SDS011;5342;55.676;13.346;2022-11-09T12:53:51;6.43;;;2.20;;
10588;SDS011;5342;55.676;13.346;2022-11-09T12:58:45;4.93;;;2.90;;
10588;SDS011;5342;55.676;13.346;2022-11-09T13:01:13;10.03;;;2.53;;
10588;SDS011;5342;55.676;13.346;2022-11-09T13:03:59;4.10;;;2.17;;
10588;SDS011;5342;55.676;13.346;2022-11-09T13:06:27;5.93;;;2.57;;
10588;SDS011;5342;55.676;13.346;2022-11-09T13:08:55;4.27;;;2.10;;
10588;SDS011;5342;55.676;13.346;2022-11-09T13:14:38;3.93;;;2.37;;
10588;SDS011;5342;55.676;13.346;2022-11-09T13:16:59;5.77;;;2.50;;
10588;SDS011;5342;55.676;13.346;2022-11-09T13:24:48;4.63;;;2.03;;
10588;SDS011;5342;55.676;13.346;2022-11-09T13:30:01;5.17;;;3.20;;
10588;SDS011;5342;55.676;13.346;2022-11-09T13:32:31;5.73;;;3.00;;
10588;SDS011;5342;55.676;13.346;2022-11-09T13:35:01;8.13;;;3.13;;
10588;SDS011;5342;55.676;13.346;2022-11-09T13:37:35;5.57;;;2.70;;
10588;SDS011;5342;55.676;13.346;2022-11-09T13:43:33;5.37;;;2.80;;
10588;SDS011;5342;55.676;13.346;2022-11-09T13:45:35;7.60;;;3.50;;
10588;SDS011;5342;55.676;13.346;2022-11-09T13:48:03;9.67;;;2.83;;
10588;SDS011;5342;55.676;13.346;2022-11-09T13:50:31;4.20;;;2.70;;
10588;SDS011;5342;55.676;13.346;2022-11-09T13:52:58;4.13;;;2.90;;
10588;SDS011;5342;55.676;13.346;2022-11-09T13:57:59;7.90;;;2.93;;
10588;SDS011;5342;55.676;13.346;2022-11-09T14:00:27;8.67;;;3.00;;
10588;SDS011;5342;55.676;13.346;2022-11-09T14:02:58;4.20;;;2.33;;
10588;SDS011;5342;55.676;13.346;2022-11-09T14:05:29;6.20;;;2.93;;
10588;SDS011;5342;55.676;13.346;2022-11-09T14:07:58;5.40;;;2.73;;
10588;SDS011;5342;55.676;13.346;2022-11-09T14:20:40;5.97;;;3.27;;
10588;SDS011;5342;55.676;13.346;2022-11-09T14:23:18;5.77;;;3.03;;
10588;SDS011;5342;55.676;13.346;2022-11-09T14:25:45;4.53;;;2.80;;
10588;SDS011;5342;55.676;13.346;2022-11-09T14:28:21;4.47;;;2.93;;
10588;SDS011;5342;55.676;13.346;2022-11-09T14:30:48;8.87;;;2.77;;
10588;SDS011;5342;55.676;13.346;2022-11-09T14:33:18;5.70;;;3.00;;
10588;SDS011;5342;55.676;13.346;2022-11-09T14:35:45;4.20;;;2.90;;
10588;SDS011;5342;55.676;13.346;2022-11-09T14:38:20;6.03;;;2.97;;
10588;SDS011;5342;55.676;13.346;2022-11-09T14:40:47;10.93;;;2.83;;
10588;SDS011;5342;55.676;13.346;2022-11-09T14:43:23;6.20;;;3.03;;
10588;SDS011;5342;55.676;13.346;2022-11-09T14:45:58;9.00;;;3.53;;
10588;SDS011;5342;55.676;13.346;2022-11-09T14:48:25;6.53;;;3.00;;
10588;SDS011;5342;55.676;13.346;2022-11-09T14:50:52;6.03;;;3.00;;
10588;SDS011;5342;55.676;13.346;2022-11-09T14:53:21;9.60;;;3.50;;
10588;SDS011;5342;55.676;13.346;2022-11-09T14:55:50;4.60;;;2.80;;
10588;SDS011;5342;55.676;13.346;2022-11-09T14:58:16;6.30;;;2.90;;
10588;SDS011;5342;55.676;13.346;2022-11-09T15:00:43;9.53;;;3.40;;
10588;SDS011;5342;55.676;13.346;2022-11-09T15:03:23;8.07;;;2.93;;
10588;SDS011;5342;55.676;13.346;2022-11-09T15:06:01;3.93;;;2.43;;
10588;SDS011;5342;55.676;13.346;2022-11-09T15:08:27;8.13;;;3.20;;
10588;SDS011;5342;55.676;13.346;2022-11-09T15:10:54;6.03;;;2.93;;
10588;SDS011;5342;55.676;13.346;2022-11-09T15:13:31;5.70;;;3.43;;
10588;SDS011;5342;55.676;13.346;2022-11-09T15:15:58;4.67;;;2.80;;
10588;SDS011;5342;55.676;13.346;2022-11-09T15:18:29;6.03;;;2.80;;
10588;SDS011;5342;55.676;13.346;2022-11-09T15:24:12;6.70;;;2.90;;
10588;SDS011;5342;55.676;13.346;2022-11-09T15:26:43;7.33;;;2.93;;
10588;SDS011;5342;55.676;13.346;2022-11-09T15:31:56;5.80;;;2.97;;
10588;SDS011;5342;55.676;13.346;2022-11-09T15:34:28;6.33;;;3.10;;
10588;SDS011;5342;55.676;13.346;2022-11-09T15:36:57;5.97;;;3.17;;
10588;SDS011;5342;55.676;13.346;2022-11-09T15:39:24;8.83;;;3.13;;
10588;SDS011;5342;55.676;13.346;2022-11-09T15:41:51;6.23;;;2.97;;
10588;SDS011;5342;55.676;13.346;2022-11-09T15:44:17;9.57;;;4.50;;
10588;SDS011;5342;55.676;13.346;2022-11-09T15:46:49;9.10;;;3.13;;
10588;SDS011;5342;55.676;13.346;2022-11-09T15:49:24;5.20;;;3.20;;
10588;SDS011;5342;55.676;13.346;2022-11-09T15:51:51;7.67;;;3.50;;
10588;SDS011;5342;55.676;13.346;2022-11-09T15:54:18;4.40;;;3.60;;
10588;SDS011;5342;55.676;13.346;2022-11-09T15:56:45;5.80;;;3.03;;
10588;SDS011;5342;55.676;13.346;2022-11-09T15:59:19;5.17;;;3.43;;
10588;SDS011;5342;55.676;13.346;2022-11-09T16:01:46;11.83;;;3.87;;
10588;SDS011;5342;55.676;13.346;2022-11-09T16:04:13;5.90;;;3.00;;
10588;SDS011;5342;55.676;13.346;2022-11-09T16:06:39;8.17;;;3.90;;
10588;SDS011;5342;55.676;13.346;2022-11-09T16:09:06;5.90;;;3.50;;
10588;SDS011;5342;55.676;13.346;2022-11-09T16:11:32;4.90;;;3.30;;
10588;SDS011;5342;55.676;13.346;2022-11-09T16:13:59;10.83;;;3.77;;
10588;SDS011;5342;55.676;13.346;2022-11-09T16:16:26;7.30;;;3.63;;
10588;SDS011;5342;55.676;13.346;2022-11-09T16:18:54;4.70;;;3.23;;
10588;SDS011;5342;55.676;13.346;2022-11-09T16:21:21;11.73;;;3.60;;
10588;SDS011;5342;55.676;13.346;2022-11-09T16:23:47;7.60;;;3.70;;
10588;SDS011;5342;55.676;13.346;2022-11-09T16:26:15;5.93;;;3.50;;
10588;SDS011;5342;55.676;13.346;2022-11-09T16:28:42;6.30;;;3.20;;
10588;SDS011;5342;55.676;13.346;2022-11-09T16:31:09;6.83;;;3.10;;
10588;SDS011;5342;55.676;13.346;2022-11-09T16:33:37;7.83;;;3.23;;
10588;SDS011;5342;55.676;13.346;2022-11-09T16:36:04;9.27;;;3.93;;
10588;SDS011;5342;55.676;13.346;2022-11-09T16:38:34;7.70;;;3.60;;
10588;SDS011;5342;55.676;13.346;2022-11-09T16:41:01;5.47;;;3.27;;
10588;SDS011;5342;55.676;13.346;2022-11-09T16:43:29;8.73;;;3.63;;
10588;SDS011;5342;55.676;13.346;2022-11-09T16:45:56;7.03;;;3.43;;
10588;SDS011;5342;55.676;13.346;2022-11-09T16:48:23;6.17;;;3.43;;
10588;SDS011;5342;55.676;13.346;2022-11-09T16:50:50;7.03;;;3.90;;